createdAt,value
2018-08-18T00:00:19.116Z,5.67
2018-08-18T00:02:48.143Z,5.70
2018-08-18T00:05:18.059Z,6.10
2018-08-18T00:07:47.565Z,6.43
2018-08-18T00:10:20.411Z,6.10
2018-08-18T00:12:49.616Z,6.23
2018-08-18T00:15:18.611Z,6.23
2018-08-18T00:17:47.727Z,6.73
2018-08-18T00:20:19.418Z,6.37
2018-08-18T00:22:48.453Z,6.07
2018-08-18T00:25:17.464Z,6.47
2018-08-18T00:27:46.548Z,5.70
2018-08-18T00:30:20.792Z,6.40
2018-08-18T00:32:49.739Z,6.03
2018-08-18T00:35:18.761Z,6.07
2018-08-18T00:37:47.771Z,5.90
2018-08-18T00:40:16.824Z,6.30
2018-08-18T00:42:46.131Z,6.03
2018-08-18T00:45:15.388Z,6.37
2018-08-18T00:47:44.526Z,6.33
2018-08-18T00:50:18.265Z,6.47
2018-08-18T00:52:47.375Z,6.33
2018-08-18T00:55:16.608Z,6.27
2018-08-18T00:57:45.742Z,7.03
2018-08-18T01:00:14.806Z,6.77
2018-08-18T01:02:43.943Z,6.20
2018-08-18T01:05:13.042Z,6.60
2018-08-18T01:07:42.342Z,6.70
2018-08-18T01:10:11.595Z,6.50
2018-08-18T01:12:40.993Z,6.53
2018-08-18T01:15:10.211Z,6.80
2018-08-18T01:17:39.170Z,6.57
2018-08-18T01:20:08.293Z,6.20
2018-08-18T01:22:37.403Z,7.43
2018-08-18T01:25:06.774Z,6.87
2018-08-18T01:27:46.606Z,6.50
2018-08-18T01:30:16.208Z,6.10
2018-08-18T01:32:45.200Z,6.93
2018-08-18T01:35:14.166Z,6.53
2018-08-18T01:37:43.275Z,7.07
2018-08-18T01:40:12.397Z,6.47
2018-08-18T01:42:41.636Z,6.53
2018-08-18T01:45:10.875Z,6.93
2018-08-18T01:47:39.913Z,7.03
2018-08-18T01:50:14.226Z,7.00
2018-08-18T01:52:43.460Z,6.57
2018-08-18T01:55:12.744Z,6.83
2018-08-18T01:57:41.895Z,6.73
2018-08-18T02:00:28.438Z,7.10
2018-08-18T02:02:57.576Z,7.10
2018-08-18T02:05:27.597Z,6.93
2018-08-18T02:07:56.995Z,7.17
2018-08-18T02:10:25.952Z,7.30
2018-08-18T02:13:03.376Z,7.20
2018-08-18T02:15:33.005Z,6.90
2018-08-18T02:18:02.292Z,6.93
2018-08-18T02:20:31.514Z,6.90
2018-08-18T02:23:00.670Z,7.17
2018-08-18T02:25:29.720Z,7.00
2018-08-18T02:27:58.686Z,7.17
2018-08-18T02:30:27.750Z,6.80
2018-08-18T02:32:56.911Z,7.03
2018-08-18T02:35:25.777Z,6.83
2018-08-18T02:37:54.640Z,7.10
2018-08-18T02:40:23.998Z,7.23
2018-08-18T02:42:53.022Z,7.87
2018-08-18T02:45:22.266Z,7.33
2018-08-18T02:48:05.011Z,7.53
2018-08-18T02:50:34.142Z,6.50
2018-08-18T02:53:07.725Z,7.40
2018-08-18T02:55:36.919Z,6.87
2018-08-18T02:58:06.071Z,7.70
2018-08-18T03:00:35.937Z,6.73
2018-08-18T03:03:05.161Z,7.33
2018-08-18T03:05:34.007Z,6.97
2018-08-18T03:08:03.019Z,7.47
2018-08-18T03:10:32.414Z,7.90
2018-08-18T03:13:01.959Z,7.37
2018-08-18T03:16:09.830Z,7.33
2018-08-18T03:18:47.283Z,7.33
2018-08-18T03:21:16.411Z,7.87
2018-08-18T03:23:56.527Z,7.53
2018-08-18T03:26:36.614Z,7.80
2018-08-18T03:29:05.655Z,6.93
2018-08-18T03:31:34.771Z,7.37
2018-08-18T03:34:04.247Z,8.00
2018-08-18T03:36:34.712Z,7.43
2018-08-18T03:39:04.439Z,7.90
2018-08-18T03:41:33.631Z,7.27
2018-08-18T03:44:02.400Z,7.33
2018-08-18T03:46:31.406Z,7.10
2018-08-18T03:49:01.106Z,7.43
2018-08-18T03:51:35.148Z,7.30
2018-08-18T03:54:04.108Z,7.67
2018-08-18T03:56:33.302Z,7.93
2018-08-18T03:59:02.223Z,7.60
2018-08-18T04:01:40.801Z,8.23
2018-08-18T04:04:11.000Z,7.63
2018-08-18T04:06:42.139Z,7.30
2018-08-18T04:09:18.778Z,7.67
2018-08-18T04:11:47.955Z,7.73
2018-08-18T04:14:22.962Z,7.90
2018-08-18T04:16:52.643Z,6.83
2018-08-18T04:19:22.718Z,7.67
2018-08-18T04:21:54.424Z,7.57
2018-08-18T04:24:29.818Z,7.10
2018-08-18T04:26:59.030Z,7.17
2018-08-18T04:29:28.050Z,6.83
2018-08-18T04:31:58.663Z,6.80
2018-08-18T04:34:27.646Z,7.13
2018-08-18T04:36:56.946Z,7.20
2018-08-18T04:39:26.075Z,7.13
2018-08-18T04:41:55.030Z,6.53
2018-08-18T04:44:24.090Z,6.60
2018-08-18T04:46:53.138Z,6.83
2018-08-18T04:49:22.131Z,6.17
2018-08-18T04:51:51.280Z,6.63
2018-08-18T04:54:20.431Z,7.53
2018-08-18T04:56:49.473Z,6.80
2018-08-18T04:59:18.501Z,6.60
2018-08-18T05:01:47.766Z,6.87
2018-08-18T05:04:17.082Z,6.70
2018-08-18T05:06:46.502Z,6.50
2018-08-18T05:09:15.950Z,6.70
2018-08-18T05:11:44.989Z,6.43
2018-08-18T05:14:14.016Z,6.60
2018-08-18T05:16:43.133Z,9.00
2018-08-18T05:19:12.342Z,7.50
2018-08-18T05:21:41.366Z,6.97
2018-08-18T05:24:22.797Z,6.27
2018-08-18T05:26:53.126Z,6.60
2018-08-18T05:29:22.416Z,6.50
2018-08-18T05:31:51.766Z,6.60
2018-08-18T05:34:20.927Z,6.10
2018-08-18T05:36:50.227Z,6.70
2018-08-18T05:39:19.225Z,5.93
2018-08-18T05:41:48.200Z,6.50
2018-08-18T05:44:17.299Z,6.30
2018-08-18T05:46:46.348Z,6.40
2018-08-18T05:49:16.351Z,6.30
2018-08-18T05:51:48.037Z,5.90
2018-08-18T05:54:22.171Z,6.20
2018-08-18T05:56:51.549Z,6.47
2018-08-18T05:59:20.706Z,6.37
2018-08-18T06:01:49.942Z,6.20
2018-08-18T06:04:20.513Z,6.43
2018-08-18T06:06:50.254Z,6.43
2018-08-18T06:09:20.202Z,5.93
2018-08-18T06:11:49.365Z,6.10
2018-08-18T06:14:18.635Z,6.40
2018-08-18T06:16:48.044Z,6.13
2018-08-18T06:19:17.291Z,5.93
2018-08-18T06:21:46.062Z,5.67
2018-08-18T06:24:15.207Z,6.30
2018-08-18T06:26:44.451Z,6.50
2018-08-18T06:29:13.596Z,6.40
2018-08-18T06:31:57.835Z,6.27
2018-08-18T06:34:28.378Z,5.90
2018-08-18T06:36:57.730Z,6.40
2018-08-18T06:39:27.181Z,6.00
2018-08-18T06:41:56.545Z,6.50
2018-08-18T06:44:27.469Z,6.00
2018-08-18T06:46:56.985Z,6.30
2018-08-18T06:49:26.111Z,6.00
2018-08-18T06:51:55.254Z,6.30
2018-08-18T06:54:24.175Z,6.00
2018-08-18T06:56:52.953Z,6.00
2018-08-18T07:14:46.772Z,6.30
2018-08-18T07:17:16.627Z,6.20
2018-08-18T07:19:45.938Z,6.50
2018-08-18T07:22:17.647Z,6.17
2018-08-18T07:24:46.309Z,6.27
2018-08-18T07:27:15.431Z,6.50
2018-08-18T07:29:50.716Z,5.87
2018-08-18T07:32:20.157Z,5.97
2018-08-18T07:34:49.308Z,6.23
2018-08-18T07:37:18.152Z,6.30
2018-08-18T07:39:47.352Z,7.00
2018-08-18T07:42:16.271Z,6.60
2018-08-18T07:44:45.441Z,6.40
2018-08-18T07:47:14.974Z,5.80
2018-08-18T07:49:44.005Z,6.63
2018-08-18T07:52:13.311Z,6.10
2018-08-18T07:54:42.435Z,6.43
2018-08-18T07:57:11.424Z,6.43
2018-08-18T07:59:40.330Z,6.47
2018-08-18T08:02:09.245Z,6.37
2018-08-18T08:04:38.478Z,6.47
2018-08-18T08:07:07.595Z,6.20
2018-08-18T08:09:36.629Z,6.40
2018-08-18T08:12:05.898Z,6.17
2018-08-18T08:14:34.646Z,5.67
2018-08-18T08:17:03.626Z,5.77
2018-08-18T08:19:32.772Z,6.23
2018-08-18T08:22:01.821Z,6.33
2018-08-18T08:24:31.022Z,6.00
2018-08-18T08:27:00.217Z,6.10
2018-08-18T08:29:34.199Z,6.73
2018-08-18T08:32:03.234Z,5.93
2018-08-18T08:34:36.054Z,6.07
2018-08-18T08:37:04.785Z,6.27
2018-08-18T08:39:33.669Z,6.40
2018-08-18T08:42:02.638Z,5.73
2018-08-18T08:44:31.835Z,5.60
2018-08-18T08:47:05.546Z,5.97
2018-08-18T08:49:34.416Z,5.10
2018-08-18T08:52:03.611Z,5.20
2018-08-18T08:54:35.637Z,5.20
2018-08-18T08:57:06.070Z,5.67
2018-08-18T08:59:35.917Z,4.92
2018-08-18T09:02:05.439Z,5.85
2018-08-18T09:04:35.297Z,4.62
2018-08-18T09:07:06.724Z,4.95
2018-08-18T09:09:35.821Z,4.42
2018-08-18T09:12:05.124Z,4.17
2018-08-18T09:14:34.326Z,4.33
2018-08-18T09:17:03.485Z,4.70
2018-08-18T09:19:32.786Z,3.95
2018-08-18T09:22:03.969Z,4.05
2018-08-18T09:24:33.555Z,4.53
2018-08-18T09:27:05.114Z,4.40
2018-08-18T09:29:38.413Z,4.33
2018-08-18T09:32:07.489Z,4.70
2018-08-18T09:34:41.578Z,4.67
2018-08-18T09:37:10.931Z,4.62
2018-08-18T09:39:39.967Z,4.33
2018-08-18T09:42:11.412Z,4.17
2018-08-18T09:44:43.609Z,4.45
2018-08-18T09:47:12.936Z,4.45
2018-08-18T09:49:42.103Z,4.37
2018-08-18T09:52:13.574Z,4.47
2018-08-18T09:54:42.822Z,4.53
2018-08-18T09:57:12.032Z,4.78
2018-08-18T09:59:41.218Z,4.40
2018-08-18T10:02:11.630Z,4.60
2018-08-18T10:04:40.730Z,4.40
2018-08-18T10:07:09.906Z,5.15
2018-08-18T10:09:39.060Z,4.65
2018-08-18T10:12:08.213Z,4.53
2018-08-18T10:14:36.978Z,4.53
2018-08-18T10:17:06.194Z,4.70
2018-08-18T10:19:35.435Z,4.92
2018-08-18T10:22:04.710Z,4.60
2018-08-18T10:24:33.687Z,5.60
2018-08-18T10:27:04.686Z,5.10
2018-08-18T10:29:33.842Z,5.42
2018-08-18T10:32:03.209Z,5.28
2018-08-18T10:34:33.502Z,5.15
2018-08-18T10:37:05.051Z,5.53
2018-08-18T10:39:34.358Z,5.17
2018-08-18T10:42:14.620Z,4.97
2018-08-18T10:44:49.595Z,4.83
2018-08-18T10:47:19.850Z,5.12
2018-08-18T10:49:59.820Z,4.92
2018-08-18T10:52:40.161Z,5.12
2018-08-18T10:55:10.488Z,6.00
2018-08-18T10:57:51.213Z,5.17
2018-08-18T11:00:21.380Z,5.12
2018-08-18T11:02:51.798Z,5.53
2018-08-18T11:05:21.316Z,5.40
2018-08-18T11:07:56.439Z,4.95
2018-08-18T11:10:27.053Z,4.75
2018-08-18T11:12:56.267Z,5.05
2018-08-18T11:15:25.216Z,5.03
2018-08-18T11:17:54.668Z,4.80
2018-08-18T11:20:25.083Z,4.67
2018-08-18T11:22:59.774Z,4.47
2018-08-18T11:25:33.330Z,4.72
2018-08-18T11:28:02.766Z,4.95
2018-08-18T11:30:31.882Z,5.12
2018-08-18T11:33:01.826Z,4.83
2018-08-18T11:35:31.548Z,4.87
2018-08-18T11:38:05.247Z,4.72
2018-08-18T11:40:34.343Z,5.00
2018-08-18T11:43:06.374Z,4.42
2018-08-18T11:45:36.375Z,4.47
2018-08-18T11:48:17.191Z,4.30
2018-08-18T11:50:46.679Z,4.55
2018-08-18T11:53:15.934Z,4.42
2018-08-18T11:55:45.275Z,4.35
2018-08-18T11:58:17.413Z,4.65
2018-08-18T12:00:53.947Z,4.95
2018-08-18T12:03:26.060Z,4.78
2018-08-18T12:05:56.331Z,4.47
2018-08-18T12:08:28.505Z,4.42
2018-08-18T12:10:59.170Z,4.50
2018-08-18T12:13:33.066Z,4.47
2018-08-18T12:16:09.325Z,4.47
2018-08-18T12:18:40.296Z,4.60
2018-08-18T12:21:09.837Z,4.37
2018-08-18T12:23:41.208Z,3.92
2018-08-18T12:26:13.868Z,4.90
2018-08-18T12:28:45.223Z,6.28
2018-08-18T12:31:19.290Z,6.62
2018-08-18T12:33:48.519Z,6.33
2018-08-18T12:36:17.383Z,6.07
2018-08-18T12:38:49.180Z,6.60
2018-08-18T12:41:17.971Z,6.50
2018-08-18T12:43:49.782Z,6.10
2018-08-18T12:46:20.293Z,6.07
2018-08-18T12:48:50.861Z,6.40
2018-08-18T12:51:20.582Z,6.20
2018-08-18T12:53:53.836Z,6.23
2018-08-18T12:56:24.563Z,5.87
2018-08-18T12:58:53.673Z,5.80
2018-08-18T13:01:51.130Z,5.13
2018-08-18T13:04:21.491Z,5.60
2018-08-18T13:06:53.172Z,5.00
2018-08-18T13:09:24.542Z,5.20
2018-08-18T13:11:55.012Z,6.00
2018-08-18T13:14:25.422Z,4.93
2018-08-18T13:16:54.325Z,5.23
2018-08-18T13:19:24.807Z,4.73
2018-08-18T13:21:54.047Z,4.63
2018-08-18T13:24:23.487Z,5.10
2018-08-18T13:26:52.640Z,5.10
2018-08-18T13:29:21.866Z,4.75
2018-08-18T13:31:51.022Z,5.20
2018-08-18T13:34:20.113Z,4.80
2018-08-18T13:36:48.937Z,4.70
2018-08-18T13:39:19.072Z,4.87
2018-08-18T13:41:48.932Z,5.20
2018-08-18T13:44:28.342Z,5.20
2018-08-18T13:46:57.537Z,5.17
2018-08-18T13:49:27.262Z,5.13
2018-08-18T13:51:56.529Z,5.20
2018-08-18T13:54:25.528Z,4.60
2018-08-18T13:56:54.637Z,4.83
2018-08-18T13:59:47.102Z,4.80
2018-08-18T14:02:16.370Z,4.40
2018-08-18T14:04:45.424Z,4.30
2018-08-18T14:07:14.662Z,4.90
2018-08-18T14:09:52.855Z,5.13
2018-08-18T14:12:21.918Z,5.10
2018-08-18T14:14:51.039Z,4.53
2018-08-18T14:17:22.059Z,4.53
2018-08-18T14:19:51.920Z,4.70
2018-08-18T14:22:22.425Z,5.50
2018-08-18T14:24:51.482Z,5.00
2018-08-18T14:27:23.341Z,3.87
2018-08-18T14:29:52.630Z,4.60
2018-08-18T14:32:28.874Z,4.83
2018-08-18T14:35:07.091Z,4.40
2018-08-18T14:37:40.961Z,4.27
2018-08-18T14:40:16.576Z,4.63
2018-08-18T14:42:46.626Z,4.60
2018-08-18T14:45:17.203Z,4.43
2018-08-18T14:47:47.380Z,4.30
2018-08-18T14:50:29.410Z,4.67
2018-08-18T14:52:58.219Z,4.43
2018-08-18T14:55:27.450Z,4.57
2018-08-18T14:58:01.687Z,4.60
2018-08-18T15:00:31.112Z,5.83
2018-08-18T15:03:00.338Z,6.10
2018-08-18T15:05:29.660Z,6.30
2018-08-18T15:07:59.570Z,4.67
2018-08-18T15:10:39.189Z,5.20
2018-08-18T15:13:09.125Z,5.27
2018-08-18T15:15:38.204Z,4.60
2018-08-18T15:18:13.265Z,4.67
2018-08-18T15:20:42.727Z,4.43
2018-08-18T15:23:12.966Z,5.10
2018-08-18T15:25:42.914Z,4.90
2018-08-18T15:28:13.270Z,4.73
2018-08-18T15:30:43.309Z,4.90
2018-08-18T15:33:15.498Z,4.70
2018-08-18T15:35:44.762Z,4.50
2018-08-18T15:38:13.924Z,4.80
2018-08-18T15:40:42.890Z,4.97
2018-08-18T15:43:11.769Z,4.90
2018-08-18T15:46:04.551Z,4.63
2018-08-18T15:48:33.650Z,4.80
2018-08-18T15:51:02.534Z,4.27
2018-08-18T15:53:53.927Z,4.97
2018-08-18T15:56:23.814Z,5.50
2018-08-18T15:58:53.899Z,5.13
2018-08-18T16:01:25.557Z,7.10
2018-08-18T16:03:55.260Z,7.40
2018-08-18T16:06:24.582Z,7.13
2018-08-18T16:08:54.142Z,8.03
2018-08-18T16:11:23.530Z,7.77
2018-08-18T16:13:52.455Z,7.07
2018-08-18T16:16:21.558Z,6.37
2018-08-18T16:18:55.339Z,6.93
2018-08-18T16:21:24.843Z,7.20
2018-08-18T16:23:53.973Z,6.17
2018-08-18T16:26:22.804Z,6.10
2018-08-18T16:28:53.322Z,5.97
2018-08-18T16:31:22.297Z,6.13
2018-08-18T16:33:51.718Z,5.53
2018-08-18T16:36:20.714Z,5.63
2018-08-18T16:38:49.722Z,5.23
2018-08-18T16:41:18.986Z,5.70
2018-08-18T16:43:47.694Z,5.30
2018-08-18T16:46:25.929Z,5.67
2018-08-18T16:48:55.202Z,7.93
2018-08-18T16:51:24.354Z,6.30
2018-08-18T16:53:53.296Z,8.87
2018-08-18T16:56:24.647Z,24.17
2018-08-18T16:58:54.924Z,14.33
2018-08-18T17:01:24.094Z,8.47
2018-08-18T17:03:53.196Z,6.77
2018-08-18T17:06:22.527Z,6.70
2018-08-18T17:08:51.362Z,6.27
2018-08-18T17:11:20.282Z,6.83
2018-08-18T17:13:49.399Z,6.80
2018-08-18T17:16:18.619Z,6.83
2018-08-18T17:18:47.922Z,7.80
2018-08-18T17:21:17.064Z,7.90
2018-08-18T17:23:46.263Z,7.00
2018-08-18T17:26:15.494Z,6.40
2018-08-18T17:28:44.291Z,6.03
2018-08-18T17:31:13.449Z,5.97
2018-08-18T17:33:42.353Z,6.33
2018-08-18T17:36:11.533Z,6.07
2018-08-18T17:38:40.718Z,6.23
2018-08-18T17:41:09.762Z,6.00
2018-08-18T17:43:38.854Z,6.50
2018-08-18T17:46:07.858Z,6.33
2018-08-18T17:48:42.146Z,6.27
2018-08-18T17:51:11.599Z,5.50
2018-08-18T17:53:48.718Z,5.27
2018-08-18T17:56:17.888Z,5.97
2018-08-18T17:58:47.188Z,5.60
2018-08-18T18:01:16.291Z,5.77
2018-08-18T18:03:45.425Z,5.77
2018-08-18T18:06:14.546Z,5.90
2018-08-18T18:08:43.417Z,6.27
2018-08-18T18:11:12.695Z,6.07
2018-08-18T18:13:41.634Z,5.80
2018-08-18T18:16:21.498Z,6.27
2018-08-18T18:18:50.642Z,7.27
2018-08-18T18:21:19.493Z,6.90
2018-08-18T18:23:48.831Z,6.60
2018-08-18T18:26:17.889Z,5.90
2018-08-18T18:28:46.636Z,6.50
2018-08-18T18:31:15.675Z,7.83
2018-08-18T18:33:48.911Z,7.83
2018-08-18T18:36:17.825Z,8.03
2018-08-18T18:38:54.463Z,7.33
2018-08-18T18:41:23.630Z,6.83
2018-08-18T18:44:00.765Z,6.53
2018-08-18T18:46:29.562Z,6.70
2018-08-18T18:48:58.857Z,6.73
2018-08-18T18:51:28.006Z,7.07
2018-08-18T18:53:57.878Z,7.00
2018-08-18T18:56:27.007Z,7.43
2018-08-18T18:58:56.171Z,6.67
2018-08-18T19:01:25.411Z,7.00
2018-08-18T19:03:54.554Z,6.10
2018-08-18T19:06:23.905Z,6.20
2018-08-18T19:09:00.375Z,6.33
2018-08-18T19:11:29.679Z,6.03
2018-08-18T19:13:59.184Z,6.57
2018-08-18T19:16:28.127Z,6.70
2018-08-18T19:18:57.302Z,6.63
2018-08-18T19:21:33.118Z,6.80
2018-08-18T19:24:08.955Z,6.27
2018-08-18T19:27:00.582Z,6.67
2018-08-18T19:29:30.052Z,6.30
2018-08-18T19:31:59.910Z,6.50
2018-08-18T19:34:28.762Z,6.87
2018-08-18T19:37:09.289Z,6.37
2018-08-18T19:39:38.794Z,6.83
2018-08-18T19:42:16.937Z,6.47
2018-08-18T19:44:47.658Z,6.53
2018-08-18T19:47:23.133Z,6.00
2018-08-18T19:49:52.157Z,6.07
2018-08-18T19:52:23.542Z,6.30
2018-08-18T19:54:53.063Z,6.47
2018-08-18T19:57:43.342Z,6.30
2018-08-18T20:00:22.798Z,6.30
2018-08-18T20:03:03.476Z,6.90
2018-08-18T20:05:32.678Z,6.53
2018-08-18T20:08:01.767Z,5.87
2018-08-18T20:10:30.733Z,5.90
2018-08-18T20:12:59.519Z,6.30
2018-08-18T20:15:28.470Z,6.50
2018-08-18T20:17:57.328Z,7.17
2018-08-18T20:20:26.373Z,6.20
2018-08-18T20:22:55.509Z,6.20
2018-08-18T20:25:24.402Z,6.03
2018-08-18T20:27:53.180Z,6.33
2018-08-18T20:30:22.381Z,6.30
2018-08-18T20:32:51.258Z,6.37
2018-08-18T20:35:20.450Z,6.60
2018-08-18T20:37:49.625Z,6.50
2018-08-18T20:40:18.564Z,6.53
2018-08-18T20:42:47.819Z,6.40
2018-08-18T20:45:17.043Z,6.80
2018-08-18T20:47:46.305Z,6.37
2018-08-18T20:50:15.632Z,7.10
2018-08-18T20:52:44.683Z,6.63
2018-08-18T20:55:13.761Z,7.00
2018-08-18T20:57:42.794Z,7.33
2018-08-18T21:00:12.643Z,6.67
2018-08-18T21:02:41.784Z,7.03
2018-08-18T21:05:11.900Z,7.23
2018-08-18T21:07:41.147Z,7.67
2018-08-18T21:10:12.294Z,7.67
2018-08-18T21:12:45.502Z,7.33
2018-08-18T21:15:14.767Z,6.93
2018-08-18T21:17:43.762Z,7.07
2018-08-18T21:20:16.030Z,7.03
2018-08-18T21:22:45.323Z,7.53
2018-08-18T21:25:15.051Z,7.03
2018-08-18T21:27:44.329Z,6.70
2018-08-18T21:30:16.083Z,7.20
2018-08-18T21:32:45.260Z,7.00
2018-08-18T21:35:14.126Z,7.47
2018-08-18T21:37:43.380Z,7.40
2018-08-18T21:40:12.395Z,7.33
2018-08-18T21:42:41.565Z,7.10
2018-08-18T21:45:12.269Z,7.50
2018-08-18T21:47:41.154Z,7.60
2018-08-18T21:50:10.433Z,7.47
2018-08-18T21:52:39.580Z,7.07
2018-08-18T21:55:08.695Z,7.60
2018-08-18T21:57:52.533Z,8.23
2018-08-18T22:00:21.674Z,7.67
2018-08-18T22:02:50.927Z,7.57
2018-08-18T22:05:19.894Z,7.77
2018-08-18T22:07:51.434Z,7.37
2018-08-18T22:10:20.684Z,7.23
2018-08-18T22:12:49.911Z,7.30
2018-08-18T22:15:19.977Z,7.27
2018-08-18T22:17:49.982Z,7.33
2018-08-18T22:20:20.419Z,6.90
2018-08-18T22:22:49.484Z,7.17
2018-08-18T22:25:18.769Z,6.93
2018-08-18T22:27:52.286Z,7.00
2018-08-18T22:30:23.603Z,6.87
2018-08-18T22:32:52.888Z,6.83
2018-08-18T22:35:22.156Z,7.17
2018-08-18T22:37:51.322Z,7.30
2018-08-18T22:40:20.509Z,7.10
2018-08-18T22:42:49.418Z,7.30
2018-08-18T22:45:28.509Z,7.27
2018-08-18T22:47:57.721Z,6.47
2018-08-18T22:50:26.910Z,6.57
2018-08-18T22:52:56.150Z,7.23
2018-08-18T22:55:25.415Z,6.57
2018-08-18T22:58:01.489Z,6.50
2018-08-18T23:00:33.687Z,6.70
2018-08-18T23:03:02.708Z,6.70
2018-08-18T23:05:31.787Z,7.23
2018-08-18T23:08:00.615Z,6.60
2018-08-18T23:10:31.204Z,6.57
2018-08-18T23:13:01.193Z,7.00
2018-08-18T23:15:30.486Z,6.67
2018-08-18T23:17:59.694Z,6.80
2018-08-18T23:20:29.132Z,6.53
2018-08-18T23:22:59.616Z,6.43
2018-08-18T23:25:30.167Z,6.90
2018-08-18T23:27:59.062Z,7.27
2018-08-18T23:30:33.833Z,7.57
2018-08-18T23:33:04.241Z,6.77
2018-08-18T23:35:33.686Z,6.47
2018-08-18T23:38:02.678Z,6.80
2018-08-18T23:40:31.630Z,7.10
2018-08-18T23:43:00.495Z,6.83
2018-08-18T23:45:41.072Z,6.80
2018-08-18T23:48:13.479Z,6.50
2018-08-18T23:50:43.822Z,6.50
2018-08-18T23:53:14.899Z,6.73
2018-08-18T23:55:50.706Z,7.03
2018-08-18T23:58:21.945Z,7.23
